Time;durP1;ratioP1;P1;durP2;ratioP2;P2;SDS_P1;SDS_P2;PMS_P1;PMS_P2;Temp;Humidity;BMP_temperature;BMP_pressure;BME280_temperature;BME280_humidity;BME280_pressure;Samples;Min_cycle;Max_cycle;Signal;HPM_P1;HPM_P2
2021/03/14 00:01:10;;;;;;;;;;;2.60;99.90;;;;;;5090603;28;19912;-72
2021/03/14 00:03:36;;;;;;;;;;;2.60;99.90;;;;;;5090775;28;20348;-72
2021/03/14 00:06:02;;;;;;;;;;;2.60;99.90;;;;;;5090073;28;19916;-71
2021/03/14 00:08:29;;;;;;;;;;;2.60;99.90;;;;;;5076140;28;19916;-70
2021/03/14 00:10:58;;;;;;;;;;;2.70;99.90;;;;;;5076564;28;19916;-71
2021/03/14 00:13:28;;;;;;;;;;;2.60;99.90;;;;;;5096520;28;19919;-71
2021/03/14 00:15:54;;;;;;;;;;;2.60;99.90;;;;;;5094460;28;20302;-71
2021/03/14 00:18:21;;;;;;;;;;;2.60;99.90;;;;;;5093843;28;19912;-71
2021/03/14 00:20:47;;;;;;;;;;;2.60;99.90;;;;;;5090312;28;19908;-69
2021/03/14 00:23:13;;;;;;;;;;;2.60;99.90;;;;;;5085546;28;19915;-71
2021/03/14 00:25:39;;;;;;;;;;;2.50;99.90;;;;;;5096240;28;20335;-70
2021/03/14 00:28:05;;;;;;;;;;;2.50;99.90;;;;;;5095909;28;20377;-70
2021/03/14 00:30:31;;;;;;;;;;;2.50;99.90;;;;;;5094771;28;20361;-71
2021/03/14 00:32:57;;;;;;;;;;;2.50;99.90;;;;;;5095860;28;19918;-71
2021/03/14 00:35:23;;;;;;;;;;;2.50;99.90;;;;;;5096087;28;19957;-70
2021/03/14 00:37:49;;;;;;;;;;;2.50;99.90;;;;;;5082146;28;19924;-70
2021/03/14 00:40:15;;;;;;;;;;;2.40;99.90;;;;;;5091741;28;19904;-71
2021/03/14 00:42:41;;;;;;;;;;;2.40;99.90;;;;;;5085936;28;19908;-71
2021/03/14 00:45:07;;;;;;;;;;;2.40;99.90;;;;;;5094103;28;19908;-70
2021/03/14 00:47:33;;;;;;;;;;;2.40;99.90;;;;;;5093191;28;19916;-71
2021/03/14 00:49:59;;;;;;;;;;;2.40;99.90;;;;;;5094356;28;20399;-70
2021/03/14 00:52:25;;;;;;;;;;;2.40;99.90;;;;;;5088794;28;19904;-70
2021/03/14 00:54:51;;;;;;;;;;;2.40;99.90;;;;;;5093085;28;19908;-71
2021/03/14 00:57:17;;;;;;;;;;;2.40;99.90;;;;;;5095694;28;19912;-71
2021/03/14 00:59:43;;;;;;;;;;;2.30;99.90;;;;;;5094985;28;19960;-71
2021/03/14 01:02:09;;;;;;;;;;;2.30;99.90;;;;;;5094841;28;19920;-70
2021/03/14 01:04:35;;;;;;;;;;;2.30;99.90;;;;;;5093778;28;19981;-71
2021/03/14 01:07:01;;;;;;;;;;;2.30;99.90;;;;;;5095095;28;19961;-68
2021/03/14 01:09:27;;;;;;;;;;;2.30;99.90;;;;;;5095130;28;19908;-68
2021/03/14 01:11:53;;;;;;;;;;;2.30;99.90;;;;;;5094875;28;19912;-69
2021/03/14 01:14:19;;;;;;;;;;;2.30;99.90;;;;;;5094486;28;19935;-69
2021/03/14 01:16:45;;;;;;;;;;;2.30;99.90;;;;;;5094350;28;19912;-69
2021/03/14 01:19:11;;;;;;;;;;;2.20;99.90;;;;;;5093432;28;19916;-68
2021/03/14 01:21:37;;;;;;;;;;;2.20;99.90;;;;;;5094400;28;19912;-68
2021/03/14 01:24:03;;;;;;;;;;;2.20;99.90;;;;;;5086390;28;19919;-70
2021/03/14 01:26:29;;;;;;;;;;;2.20;99.90;;;;;;5078218;28;19924;-71
2021/03/14 01:28:55;;;;;;;;;;;2.10;99.90;;;;;;5094835;28;20377;-70
2021/03/14 01:31:21;;;;;;;;;;;2.10;99.90;;;;;;5089828;28;19908;-71
2021/03/14 01:33:47;;;;;;;;;;;2.10;99.90;;;;;;5095029;28;19912;-71
2021/03/14 01:36:12;;;;;;;;;;;2.00;99.90;;;;;;5094252;28;19916;-71
2021/03/14 01:38:38;;;;;;;;;;;2.00;99.90;;;;;;5076675;28;19923;-71
2021/03/14 01:41:04;;;;;;;;;;;2.00;99.90;;;;;;5094524;28;19912;-70
2021/03/14 01:43:35;;;;;;;;;;;2.00;99.90;;;;;;5094678;28;20322;-70
2021/03/14 01:46:04;;;;;;;;;;;2.00;99.90;;;;;;5093584;28;19915;-70
2021/03/14 01:48:29;;;;;;;;;;;1.90;99.90;;;;;;5093130;28;19938;-69
2021/03/14 01:50:55;;;;;;;;;;;2.00;99.90;;;;;;5094047;28;20388;-69
2021/03/14 01:53:21;;;;;;;;;;;2.00;99.90;;;;;;5094498;28;19919;-69
2021/03/14 01:55:47;;;;;;;;;;;1.90;99.90;;;;;;5088088;28;19908;-68
2021/03/14 01:58:13;;;;;;;;;;;1.90;99.90;;;;;;5081137;28;20245;-69
2021/03/14 02:00:39;;;;;;;;;;;1.90;99.90;;;;;;5090184;28;19931;-68
2021/03/14 02:03:05;;;;;;;;;;;1.90;99.90;;;;;;5094152;28;20369;-68
2021/03/14 02:05:31;;;;;;;;;;;1.80;99.90;;;;;;5094169;28;20379;-68
2021/03/14 02:07:57;;;;;;;;;;;1.80;99.90;;;;;;5093601;28;19920;-68
2021/03/14 02:10:24;;;;;;;;;;;1.70;99.90;;;;;;5079142;28;19908;-68
2021/03/14 02:12:56;;;;;;;;;;;1.70;99.90;;;;;;5083696;28;19908;-68
2021/03/14 02:15:22;;;;;;;;;;;1.60;99.90;;;;;;5093200;28;19919;-69
2021/03/14 02:17:48;;;;;;;;;;;1.60;99.90;;;;;;5081941;28;19908;-68
2021/03/14 02:20:15;;;;;;;;;;;1.60;99.90;;;;;;5080445;28;19908;-68
2021/03/14 02:22:41;;;;;;;;;;;1.50;99.90;;;;;;5085380;28;19915;-68
2021/03/14 02:25:11;;;;;;;;;;;1.50;99.90;;;;;;5086195;28;19915;-68
2021/03/14 02:27:38;;;;;;;;;;;1.50;99.90;;;;;;5082427;28;19927;-69
2021/03/14 02:30:05;;;;;;;;;;;1.40;99.90;;;;;;5089639;28;20287;-67
2021/03/14 02:32:31;;;;;;;;;;;1.40;99.90;;;;;;5093158;28;19941;-69
2021/03/14 02:34:58;;;;;;;;;;;1.40;99.90;;;;;;5079998;28;19912;-69
2021/03/14 02:37:24;;;;;;;;;;;1.30;99.90;;;;;;5083155;28;20356;-68
2021/03/14 02:39:54;;;;;;;;;;;1.30;99.90;;;;;;5086773;28;19915;-69
2021/03/14 02:42:20;;;;;;;;;;;1.30;99.90;;;;;;5092373;28;19907;-69
2021/03/14 02:44:47;;;;;;;;;;;1.30;99.90;;;;;;5086456;28;20332;-69
2021/03/14 02:47:13;;;;;;;;;;;1.20;99.90;;;;;;5075553;28;19923;-69
2021/03/14 02:49:39;;;;;;;;;;;1.20;99.90;;;;;;5081407;28;19919;-69
2021/03/14 02:52:06;;;;;;;;;;;1.10;99.90;;;;;;5081654;28;19911;-68
2021/03/14 02:54:35;;;;;;;;;;;1.20;99.90;;;;;;5077409;28;19908;-69
2021/03/14 02:57:01;;;;;;;;;;;1.10;99.90;;;;;;5082961;28;19912;-68
2021/03/14 02:59:27;;;;;;;;;;;1.10;99.90;;;;;;5076652;28;19915;-69
2021/03/14 03:01:53;;;;;;;;;;;1.10;99.90;;;;;;5091988;28;19907;-68
2021/03/14 03:04:19;;;;;;;;;;;1.10;99.90;;;;;;5091612;28;19915;-68
2021/03/14 03:06:45;;;;;;;;;;;1.00;99.90;;;;;;5072908;28;19924;-68
2021/03/14 03:09:11;;;;;;;;;;;1.00;99.90;;;;;;5091250;28;19919;-69
2021/03/14 03:11:37;;;;;;;;;;;1.00;99.90;;;;;;5091657;28;19911;-69
2021/03/14 03:14:04;;;;;;;;;;;1.00;99.90;;;;;;5090961;28;19908;-68
2021/03/14 03:16:29;;;;;;;;;;;1.00;99.90;;;;;;5084547;28;19923;-69
2021/03/14 03:18:56;;;;;;;;;;;0.90;99.90;;;;;;5092552;28;20027;-69
2021/03/14 03:21:22;;;;;;;;;;;1.00;99.90;;;;;;5091853;28;19915;-68
2021/03/14 03:23:48;;;;;;;;;;;0.90;99.90;;;;;;5088412;28;19908;-68
2021/03/14 03:26:14;;;;;;;;;;;0.90;99.90;;;;;;5089561;28;20309;-68
2021/03/14 03:28:40;;;;;;;;;;;0.90;99.90;;;;;;5073895;28;19929;-68
2021/03/14 03:31:06;;;;;;;;;;;0.90;99.90;;;;;;5070789;28;19908;-68
2021/03/14 03:33:32;;;;;;;;;;;0.80;99.90;;;;;;5071389;28;19904;-68
2021/03/14 03:35:57;;;;;;;;;;;0.80;99.90;;;;;;5071140;28;19908;-68
2021/03/14 03:38:24;;;;;;;;;;;0.80;99.90;;;;;;5071646;28;19923;-68
2021/03/14 03:40:50;;;;;;;;;;;0.80;99.90;;;;;;5071403;28;19913;-68
2021/03/14 03:43:25;;;;;;;;;;;0.80;99.90;;;;;;5069158;28;19938;-69
2021/03/14 03:45:54;;;;;;;;;;;0.80;99.90;;;;;;5070280;28;20357;-68
2021/03/14 03:48:21;;;;;;;;;;;0.80;99.90;;;;;;5070369;28;19916;-68
2021/03/14 03:50:53;;;;;;;;;;;0.80;99.90;;;;;;5071097;28;20296;-68
2021/03/14 03:53:19;;;;;;;;;;;0.80;99.90;;;;;;5064326;28;19937;-68
2021/03/14 03:55:45;;;;;;;;;;;0.70;99.90;;;;;;5070013;28;19908;-68
2021/03/14 03:58:11;;;;;;;;;;;0.70;99.90;;;;;;5070870;28;20321;-68
2021/03/14 04:00:37;;;;;;;;;;;0.70;99.90;;;;;;5072039;28;20374;-69
2021/03/14 04:03:03;;;;;;;;;;;0.70;99.90;;;;;;5071779;28;19919;-69
2021/03/14 04:05:29;;;;;;;;;;;0.70;99.90;;;;;;5069463;28;19939;-68
2021/03/14 04:07:55;;;;;;;;;;;0.70;99.90;;;;;;5068803;28;19966;-68
2021/03/14 04:10:21;;;;;;;;;;;0.60;99.90;;;;;;5063530;28;20676;-68
2021/03/14 04:12:47;;;;;;;;;;;0.60;99.90;;;;;;5070076;28;19916;-68
2021/03/14 04:15:14;;;;;;;;;;;0.60;99.90;;;;;;5066879;28;19915;-68
2021/03/14 04:17:39;;;;;;;;;;;0.60;99.90;;;;;;5070377;28;20377;-68
2021/03/14 04:20:07;;;;;;;;;;;0.60;99.90;;;;;;5061832;28;19958;-68
2021/03/14 04:22:33;;;;;;;;;;;0.60;99.90;;;;;;5071997;28;20353;-68
2021/03/14 04:24:59;;;;;;;;;;;0.50;99.90;;;;;;5070552;28;19958;-68
2021/03/14 04:27:25;;;;;;;;;;;0.50;99.90;;;;;;5054284;28;19924;-68
2021/03/14 04:29:51;;;;;;;;;;;0.50;99.90;;;;;;5070649;28;19923;-67
2021/03/14 04:32:17;;;;;;;;;;;0.50;99.90;;;;;;5071187;28;19912;-68
2021/03/14 04:34:43;;;;;;;;;;;0.50;99.90;;;;;;5070999;28;19908;-68
2021/03/14 04:37:09;;;;;;;;;;;0.50;99.90;;;;;;5061293;28;19916;-68
2021/03/14 04:39:35;;;;;;;;;;;0.50;99.90;;;;;;5071665;28;19915;-67
2021/03/14 04:42:02;;;;;;;;;;;0.50;99.90;;;;;;5069558;28;19920;-68
2021/03/14 04:44:27;;;;;;;;;;;0.50;99.90;;;;;;5069615;28;20283;-68
2021/03/14 04:46:53;;;;;;;;;;;0.40;99.90;;;;;;5070121;28;19916;-68
2021/03/14 04:49:19;;;;;;;;;;;0.40;99.90;;;;;;5071723;28;19912;-68
2021/03/14 04:51:45;;;;;;;;;;;0.40;99.90;;;;;;5070565;28;19969;-68
2021/03/14 04:54:11;;;;;;;;;;;0.30;99.90;;;;;;5064155;28;19912;-68
2021/03/14 04:56:38;;;;;;;;;;;0.30;99.90;;;;;;5074103;28;20413;-67
2021/03/14 04:59:04;;;;;;;;;;;0.30;99.90;;;;;;5073720;28;19912;-68
2021/03/14 05:01:30;;;;;;;;;;;0.20;99.90;;;;;;5074200;28;20383;-68
2021/03/14 05:03:56;;;;;;;;;;;0.20;99.90;;;;;;5074036;28;19958;-67
2021/03/14 05:06:22;;;;;;;;;;;0.20;99.90;;;;;;5073301;28;20312;-68
2021/03/14 05:08:48;;;;;;;;;;;0.20;99.90;;;;;;5073106;28;19924;-67
2021/03/14 05:11:17;;;;;;;;;;;0.20;99.90;;;;;;5073747;28;19916;-67
2021/03/14 05:13:44;;;;;;;;;;;0.20;99.90;;;;;;5073812;28;19915;-68
2021/03/14 05:16:10;;;;;;;;;;;0.10;99.90;;;;;;5072243;28;20281;-68
2021/03/14 05:18:37;;;;;;;;;;;0.20;99.90;;;;;;5073212;28;19931;-68
2021/03/14 05:21:03;;;;;;;;;;;0.20;99.90;;;;;;5073923;28;19912;-67
2021/03/14 05:23:30;;;;;;;;;;;0.10;99.90;;;;;;5074149;28;19912;-68
2021/03/14 05:25:56;;;;;;;;;;;0.10;99.90;;;;;;5074724;28;19908;-68
2021/03/14 05:28:22;;;;;;;;;;;0.10;99.90;;;;;;5079825;28;19923;-68
2021/03/14 05:30:48;;;;;;;;;;;0.10;99.90;;;;;;5079749;28;20261;-68
2021/03/14 05:33:14;;;;;;;;;;;0.10;99.90;;;;;;5093087;28;20373;-68
2021/03/14 05:35:40;;;;;;;;;;;0.00;99.90;;;;;;5092556;28;19908;-68
2021/03/14 05:38:06;;;;;;;;;;;0.00;99.90;;;;;;5093765;28;20327;-67
2021/03/14 05:40:32;;;;;;;;;;;0.00;99.90;;;;;;5090530;28;20430;-68
2021/03/14 05:42:58;;;;;;;;;;;0.00;99.90;;;;;;5093097;28;20296;-68
2021/03/14 05:45:24;;;;;;;;;;;0.10;99.90;;;;;;5093319;28;19907;-68
2021/03/14 05:47:50;;;;;;;;;;;0.20;99.90;;;;;;5078549;28;19924;-68
2021/03/14 05:50:24;;;;;;;;;;;0.30;99.90;;;;;;5094211;28;19919;-68
2021/03/14 05:52:50;;;;;;;;;;;0.50;99.90;;;;;;5094068;28;19912;-68
2021/03/14 05:55:17;;;;;;;;;;;0.50;99.90;;;;;;5094614;28;20002;-68
2021/03/14 05:57:43;;;;;;;;;;;0.50;99.90;;;;;;5083072;28;19909;-68
2021/03/14 06:00:10;;;;;;;;;;;0.60;99.90;;;;;;5085838;28;19939;-68
2021/03/14 06:02:37;;;;;;;;;;;0.60;99.90;;;;;;5092954;28;19915;-68
2021/03/14 06:05:03;;;;;;;;;;;0.60;99.90;;;;;;5092680;28;19908;-68
2021/03/14 06:07:29;;;;;;;;;;;0.60;99.90;;;;;;5081663;28;19923;-68
2021/03/14 06:09:55;;;;;;;;;;;0.70;99.90;;;;;;5093355;28;19923;-66
2021/03/14 06:12:21;;;;;;;;;;;0.70;99.90;;;;;;5091385;28;19923;-68
2021/03/14 06:14:46;;;;;;;;;;;0.70;99.90;;;;;;5091985;28;19908;-68
2021/03/14 06:17:12;;;;;;;;;;;0.80;99.90;;;;;;5093352;28;19958;-68
2021/03/14 06:19:38;;;;;;;;;;;0.80;99.90;;;;;;5093882;28;20265;-68
2021/03/14 06:22:23;;;;;;;;;;;0.80;99.90;;;;;;5094033;28;19912;-68
2021/03/14 06:24:49;;;;;;;;;;;0.80;99.90;;;;;;5082892;28;19919;-68
2021/03/14 06:27:51;;;;;;;;;;;0.80;99.90;;;;;;5093143;28;19920;-68
2021/03/14 06:30:17;;;;;;;;;;;0.80;99.90;;;;;;5088018;28;20368;-68
2021/03/14 06:33:10;;;;;;;;;;;0.80;99.90;;;;;;5066939;28;20278;-68
2021/03/14 06:35:37;;;;;;;;;;;0.80;99.90;;;;;;5085743;28;19927;-68
2021/03/14 06:38:18;;;;;;;;;;;0.90;99.90;;;;;;5076532;28;20372;-67
2021/03/14 06:40:44;;;;;;;;;;;0.80;99.90;;;;;;5093447;28;19939;-68
2021/03/14 06:43:11;;;;;;;;;;;0.90;99.90;;;;;;5093652;28;19934;-68
2021/03/14 06:45:38;;;;;;;;;;;1.00;99.90;;;;;;5090965;28;19920;-68
2021/03/14 06:48:04;;;;;;;;;;;1.00;99.90;;;;;;5075079;28;19916;-68
2021/03/14 06:50:30;;;;;;;;;;;1.10;99.90;;;;;;5091285;28;19920;-67
2021/03/14 06:53:25;;;;;;;;;;;1.20;99.90;;;;;;5092973;28;19922;-68
2021/03/14 06:55:52;;;;;;;;;;;1.20;99.90;;;;;;5067080;28;19908;-67
2021/03/14 06:58:19;;;;;;;;;;;1.20;99.90;;;;;;5092844;28;19923;-67
2021/03/14 07:01:03;;;;;;;;;;;1.20;99.90;;;;;;5076225;28;19908;-67
2021/03/14 07:03:29;;;;;;;;;;;1.20;99.90;;;;;;5083637;28;19931;-67
2021/03/14 07:06:31;;;;;;;;;;;1.20;99.90;;;;;;5082881;28;20360;-65
2021/03/14 07:09:19;;;;;;;;;;;1.10;99.90;;;;;;5010741;28;19923;-68
2021/03/14 07:11:46;;;;;;;;;;;1.10;99.90;;;;;;5085645;28;19915;-67
2021/03/14 07:14:13;;;;;;;;;;;1.10;99.90;;;;;;5074847;28;19908;-67
2021/03/14 07:16:46;;;;;;;;;;;1.10;99.90;;;;;;5091665;28;19915;-65
2021/03/14 07:19:22;;;;;;;;;;;1.00;99.90;;;;;;5092844;28;19908;-66
2021/03/14 07:21:57;;;;;;;;;;;1.00;99.90;;;;;;5092178;28;19959;-66
2021/03/14 07:24:34;;;;;;;;;;;1.10;99.90;;;;;;5092693;28;19915;-67
2021/03/14 07:27:00;;;;;;;;;;;1.10;99.90;;;;;;5092122;28;20288;-68
2021/03/14 07:29:26;;;;;;;;;;;1.30;99.90;;;;;;5091833;28;19920;-67
2021/03/14 07:31:53;;;;;;;;;;;1.50;99.90;;;;;;5076515;28;19982;-67
2021/03/14 07:34:19;;;;;;;;;;;1.70;99.90;;;;;;5085791;28;19912;-68
2021/03/14 07:36:45;;;;;;;;;;;1.90;99.90;;;;;;5093121;28;19912;-70
2021/03/14 07:39:11;;;;;;;;;;;2.00;99.90;;;;;;5074943;28;19908;-70
2021/03/14 07:41:37;;;;;;;;;;;2.00;99.90;;;;;;5093334;28;19926;-70
2021/03/14 07:44:04;;;;;;;;;;;2.00;99.90;;;;;;5092671;28;19908;-70
2021/03/14 07:46:30;;;;;;;;;;;2.20;99.90;;;;;;5073301;28;19916;-70
2021/03/14 07:48:56;;;;;;;;;;;2.30;99.90;;;;;;5079105;28;19924;-71
2021/03/14 07:51:22;;;;;;;;;;;2.40;99.90;;;;;;5083563;28;20347;-71
2021/03/14 07:53:48;;;;;;;;;;;2.60;99.90;;;;;;5080448;28;19931;-71
2021/03/14 07:56:14;;;;;;;;;;;2.80;99.90;;;;;;5073412;28;19916;-70
2021/03/14 07:58:40;;;;;;;;;;;2.90;99.90;;;;;;5092222;28;19916;-71
2021/03/14 08:01:25;;;;;;;;;;;2.90;99.90;;;;;;5074559;28;19911;-71
2021/03/14 08:03:52;;;;;;;;;;;3.00;99.90;;;;;;5091620;28;19915;-70
2021/03/14 08:06:38;;;;;;;;;;;3.00;99.90;;;;;;5073915;28;19908;-71
2021/03/14 08:09:04;;;;;;;;;;;3.10;99.90;;;;;;5092747;28;19912;-70
2021/03/14 08:11:30;;;;;;;;;;;3.30;99.90;;;;;;5085939;28;20364;-71
2021/03/14 08:13:56;;;;;;;;;;;3.40;99.90;;;;;;5093355;28;20352;-71
2021/03/14 08:16:22;;;;;;;;;;;3.70;99.90;;;;;;5072498;28;20353;-69
2021/03/14 08:18:49;;;;;;;;;;;3.70;99.90;;;;;;5090829;28;19962;-71
2021/03/14 08:21:21;;;;;;;;;;;3.80;99.90;;;;;;5090921;28;20284;-71
2021/03/14 08:23:56;;;;;;;;;;;3.90;99.90;;;;;;5083339;28;19911;-71
2021/03/14 08:26:23;;;;;;;;;;;4.00;99.90;;;;;;5079412;28;20407;-71
2021/03/14 08:28:56;;;;;;;;;;;4.30;99.90;;;;;;5093032;28;20272;-71
2021/03/14 08:31:38;;;;;;;;;;;4.50;99.90;;;;;;5095859;28;20364;-71
2021/03/14 08:34:04;;;;;;;;;;;4.80;99.90;;;;;;5096660;28;19908;-71
2021/03/14 08:36:32;;;;;;;;;;;5.00;99.90;;;;;;5078001;28;19919;-71
2021/03/14 08:38:58;;;;;;;;;;;5.10;99.90;;;;;;5078431;28;19911;-71
2021/03/14 08:41:27;;;;;;;;;;;5.40;99.90;;;;;;5078154;28;20267;-71
2021/03/14 08:43:54;;;;;;;;;;;5.60;99.90;;;;;;5096696;28;19904;-71
2021/03/14 08:46:21;;;;;;;;;;;5.60;99.90;;;;;;5095120;28;19912;-71
2021/03/14 08:48:47;;;;;;;;;;;5.60;99.90;;;;;;5077170;28;19924;-71
2021/03/14 08:51:13;;;;;;;;;;;5.70;99.90;;;;;;5096110;28;19912;-70
2021/03/14 08:53:39;;;;;;;;;;;5.80;99.90;;;;;;5096285;28;19908;-71
2021/03/14 08:56:05;;;;;;;;;;;5.90;99.90;;;;;;5096060;28;19908;-71
2021/03/14 08:58:32;;;;;;;;;;;6.20;99.90;;;;;;5096343;28;19923;-71
2021/03/14 09:01:00;;;;;;;;;;;6.20;99.90;;;;;;5096296;28;19916;-72
2021/03/14 09:03:26;;;;;;;;;;;6.10;99.90;;;;;;5095859;28;19904;-71
2021/03/14 09:06:11;;;;;;;;;;;5.90;99.90;;;;;;5096122;28;19904;-71
2021/03/14 09:08:37;;;;;;;;;;;5.80;99.90;;;;;;5074319;28;19912;-71
2021/03/14 09:11:02;;;;;;;;;;;5.80;99.90;;;;;;5092616;28;19916;-71
2021/03/14 09:13:28;;;;;;;;;;;5.90;99.90;;;;;;5095618;28;19908;-72
2021/03/14 09:15:54;;;;;;;;;;;6.50;99.90;;;;;;5093545;28;19912;-71
2021/03/14 09:18:24;;;;;;;;;;;6.60;99.90;;;;;;5093399;28;19922;-71
2021/03/14 09:20:57;;;;;;;;;;;6.80;99.90;;;;;;5094841;28;19908;-69
2021/03/14 09:23:22;;;;;;;;;;;6.80;99.90;;;;;;5092567;28;19912;-71
2021/03/14 09:25:52;;;;;;;;;;;6.70;99.90;;;;;;5096755;28;19923;-71
2021/03/14 09:28:18;;;;;;;;;;;6.70;99.90;;;;;;5083662;28;19925;-72
2021/03/14 09:30:44;;;;;;;;;;;6.80;99.90;;;;;;5074258;28;19920;-71
2021/03/14 09:33:12;;;;;;;;;;;7.10;99.90;;;;;;5072238;28;19919;-69
2021/03/14 09:35:39;;;;;;;;;;;7.50;99.90;;;;;;5073708;28;19920;-68
2021/03/14 09:38:09;;;;;;;;;;;7.50;99.90;;;;;;5073503;28;20301;-69
2021/03/14 09:40:35;;;;;;;;;;;7.40;99.90;;;;;;5071878;28;19909;-71
2021/03/14 09:43:13;;;;;;;;;;;7.30;99.90;;;;;;5073497;28;20038;-69
2021/03/14 09:45:41;;;;;;;;;;;7.50;99.90;;;;;;5073658;28;19915;-69
2021/03/14 09:48:16;;;;;;;;;;;7.50;99.90;;;;;;5074008;28;19923;-71
2021/03/14 09:50:42;;;;;;;;;;;7.30;99.90;;;;;;5074546;28;19923;-71
2021/03/14 09:53:08;;;;;;;;;;;7.70;99.90;;;;;;5071041;28;20296;-69
2021/03/14 09:55:35;;;;;;;;;;;8.00;99.90;;;;;;5074470;28;19912;-69
2021/03/14 09:58:01;;;;;;;;;;;8.30;99.90;;;;;;5072137;28;20379;-68
2021/03/14 10:00:28;;;;;;;;;;;8.50;99.90;;;;;;5074146;28;19916;-69
2021/03/14 10:02:54;;;;;;;;;;;8.70;99.90;;;;;;5074466;28;19920;-69
2021/03/14 10:05:20;;;;;;;;;;;9.00;99.90;;;;;;5073521;28;19941;-70
2021/03/14 10:07:49;;;;;;;;;;;9.10;99.90;;;;;;5073589;28;20019;-69
2021/03/14 10:10:15;;;;;;;;;;;8.80;99.90;;;;;;5072830;28;19904;-69
2021/03/14 10:12:41;;;;;;;;;;;8.70;99.90;;;;;;5074012;28;19927;-73
2021/03/14 10:15:07;;;;;;;;;;;8.70;99.90;;;;;;5071996;28;19904;-71
2021/03/14 10:17:33;;;;;;;;;;;8.50;99.90;;;;;;5052532;28;19909;-71
2021/03/14 10:19:59;;;;;;;;;;;8.70;99.90;;;;;;5073222;28;19923;-72
2021/03/14 10:22:32;;;;;;;;;;;8.90;99.90;;;;;;5072538;28;19911;-73
2021/03/14 10:24:58;;;;;;;;;;;9.10;99.90;;;;;;5064192;28;19908;-73
2021/03/14 10:27:24;;;;;;;;;;;9.30;99.90;;;;;;5072002;28;19963;-73
2021/03/14 10:30:16;;;;;;;;;;;9.50;99.90;;;;;;5091584;28;19920;-72
2021/03/14 10:32:44;;;;;;;;;;;9.60;99.90;;;;;;5084401;28;20402;-73
2021/03/14 10:35:10;;;;;;;;;;;9.30;99.90;;;;;;5093058;28;20303;-73
2021/03/14 10:37:36;;;;;;;;;;;9.80;99.90;;;;;;5075351;28;19908;-72
2021/03/14 10:40:06;;;;;;;;;;;9.90;99.90;;;;;;5075701;28;20387;-74
2021/03/14 10:42:36;;;;;;;;;;;10.30;99.90;;;;;;5088964;28;19915;-74
2021/03/14 10:45:03;;;;;;;;;;;10.00;99.90;;;;;;5092317;28;19923;-74
2021/03/14 10:47:29;;;;;;;;;;;10.50;99.90;;;;;;5092205;28;19916;-77
2021/03/14 10:50:08;;;;;;;;;;;10.50;99.90;;;;;;5093003;28;19912;-75
2021/03/14 10:52:34;;;;;;;;;;;10.70;99.90;;;;;;5090125;28;20297;-73
2021/03/14 10:55:00;;;;;;;;;;;10.60;99.90;;;;;;5093526;28;19912;-73
2021/03/14 10:57:26;;;;;;;;;;;9.80;99.90;;;;;;5091400;28;19989;-74
2021/03/14 11:00:03;;;;;;;;;;;10.00;99.90;;;;;;5093334;28;19908;-74
2021/03/14 11:02:36;;;;;;;;;;;10.50;99.90;;;;;;5077023;28;19919;-73
2021/03/14 11:05:02;;;;;;;;;;;10.70;98.60;;;;;;5060129;28;20296;-73
2021/03/14 11:07:32;;;;;;;;;;;11.00;98.90;;;;;;5092694;28;19908;-74
2021/03/14 11:10:04;;;;;;;;;;;11.10;98.00;;;;;;5092745;28;19916;-73
2021/03/14 11:12:31;;;;;;;;;;;11.50;97.20;;;;;;5093016;28;19911;-75
2021/03/14 11:14:57;;;;;;;;;;;11.60;95.20;;;;;;5091872;28;20374;-75
2021/03/14 11:17:27;;;;;;;;;;;11.60;99.90;;;;;;5092096;28;19911;-74
2021/03/14 11:19:53;;;;;;;;;;;11.70;98.10;;;;;;5093420;28;19914;-75
2021/03/14 11:22:20;;;;;;;;;;;11.80;96.60;;;;;;5092629;28;20372;-74
2021/03/14 11:24:46;;;;;;;;;;;11.40;94.00;;;;;;5072595;28;19908;-73
2021/03/14 11:27:12;;;;;;;;;;;10.90;94.80;;;;;;5088794;28;19912;-73
2021/03/14 11:29:38;;;;;;;;;;;11.00;93.40;;;;;;5091751;28;19916;-74
2021/03/14 11:32:05;;;;;;;;;;;11.00;94.60;;;;;;5092378;28;19914;-75
2021/03/14 11:34:31;;;;;;;;;;;11.50;95.00;;;;;;5092553;28;19919;-75
2021/03/14 11:36:57;;;;;;;;;;;11.00;96.40;;;;;;5092628;28;19919;-75
2021/03/14 11:39:23;;;;;;;;;;;11.60;96.80;;;;;;5092460;28;19908;-73
2021/03/14 11:41:49;;;;;;;;;;;11.30;95.30;;;;;;5092642;28;19912;-73
2021/03/14 11:44:15;;;;;;;;;;;10.30;96.70;;;;;;5082682;28;19991;-73
2021/03/14 11:46:41;;;;;;;;;;;9.70;97.90;;;;;;5086421;28;19916;-73
2021/03/14 11:49:07;;;;;;;;;;;9.70;99.90;;;;;;5092176;28;19920;-73
2021/03/14 11:51:33;;;;;;;;;;;9.50;96.70;;;;;;5092140;28;19965;-74
2021/03/14 11:53:59;;;;;;;;;;;9.70;99.60;;;;;;5058411;28;19909;-72
2021/03/14 11:56:25;;;;;;;;;;;9.40;97.40;;;;;;5064282;28;19915;-74
2021/03/14 11:58:51;;;;;;;;;;;9.10;97.80;;;;;;5092235;28;19931;-74
2021/03/14 12:01:17;;;;;;;;;;;8.90;98.30;;;;;;5079190;28;19908;-74
2021/03/14 12:03:44;;;;;;;;;;;8.50;99.90;;;;;;5089818;28;20342;-74
2021/03/14 12:06:10;;;;;;;;;;;8.60;99.90;;;;;;5091531;28;20360;-73
2021/03/14 12:08:37;;;;;;;;;;;8.20;99.90;;;;;;5071095;28;19916;-74
2021/03/14 12:11:05;;;;;;;;;;;8.00;99.90;;;;;;5091927;28;19908;-74
2021/03/14 12:13:32;;;;;;;;;;;7.90;99.90;;;;;;5091897;28;19920;-73
2021/03/14 12:15:58;;;;;;;;;;;7.80;99.90;;;;;;5089497;28;19912;-71
2021/03/14 12:18:24;;;;;;;;;;;8.20;99.90;;;;;;5091044;28;20433;-72
2021/03/14 12:20:50;;;;;;;;;;;8.60;99.90;;;;;;5092240;28;19911;-72
2021/03/14 12:23:17;;;;;;;;;;;8.60;99.90;;;;;;5091158;28;20376;-74
2021/03/14 12:25:43;;;;;;;;;;;8.90;99.90;;;;;;5104642;28;19907;-72
2021/03/14 12:28:09;;;;;;;;;;;9.40;99.90;;;;;;5112665;28;19920;-73
2021/03/14 12:30:35;;;;;;;;;;;9.70;99.90;;;;;;5098709;28;19919;-72
2021/03/14 12:33:01;;;;;;;;;;;10.20;99.90;;;;;;5092276;28;20006;-73
2021/03/14 12:35:27;;;;;;;;;;;10.80;98.70;;;;;;5090979;28;20257;-73
2021/03/14 12:37:53;;;;;;;;;;;11.40;96.90;;;;;;5091581;28;19912;-72
2021/03/14 12:40:19;;;;;;;;;;;10.90;98.30;;;;;;5091348;28;19916;-73
2021/03/14 12:42:45;;;;;;;;;;;11.10;97.00;;;;;;5073546;28;19994;-73
2021/03/14 12:45:11;;;;;;;;;;;10.70;95.60;;;;;;5089567;28;20010;-74
2021/03/14 12:47:37;;;;;;;;;;;9.90;97.80;;;;;;5092727;28;19970;-72
2021/03/14 12:50:04;;;;;;;;;;;10.70;99.30;;;;;;5100886;28;19920;-71
2021/03/14 12:52:31;;;;;;;;;;;10.20;95.70;;;;;;5108701;28;19923;-72
2021/03/14 12:54:56;;;;;;;;;;;10.00;95.60;;;;;;5092328;28;19904;-71
2021/03/14 12:57:22;;;;;;;;;;;9.80;96.90;;;;;;5092165;28;19966;-74
2021/03/14 12:59:48;;;;;;;;;;;9.20;99.90;;;;;;5091939;28;19965;-73
2021/03/14 13:02:14;;;;;;;;;;;9.20;96.20;;;;;;5089795;28;20575;-73
2021/03/14 13:04:40;;;;;;;;;;;8.80;96.20;;;;;;5090426;28;19916;-72
2021/03/14 13:07:06;;;;;;;;;;;8.80;99.70;;;;;;5091513;28;20334;-71
2021/03/14 13:09:32;;;;;;;;;;;8.30;99.20;;;;;;5090624;28;20573;-71
2021/03/14 13:12:01;;;;;;;;;;;8.30;99.90;;;;;;5091323;28;20296;-70
2021/03/14 13:14:27;;;;;;;29.13;6.60;;;8.40;99.90;;;;;;5086944;28;21084;-60
2021/03/14 13:16:53;;;;;;;20.40;5.20;;;8.80;97.00;;;;;;5092155;28;20381;-60
2021/03/14 13:19:19;;;;;;;17.87;4.20;;;8.90;99.20;;;;;;5092914;28;20399;-60
2021/03/14 13:21:48;;;;;;;15.00;4.10;;;9.00;98.10;;;;;;5093510;28;20872;-60
2021/03/14 13:24:15;;;;;;;18.33;3.87;;;9.30;98.80;;;;;;5084599;28;20407;-60
2021/03/14 13:26:41;;;;;;;17.20;4.20;;;9.20;99.10;;;;;;5092662;28;20388;-60
2021/03/14 13:29:08;;;;;;;15.63;4.30;;;8.60;98.50;;;;;;5092722;28;20392;-59
2021/03/14 13:31:34;;;;;;;20.50;4.60;;;8.30;99.90;;;;;;5092999;28;20772;-60
2021/03/14 13:34:01;;;;;;;20.40;4.88;;;8.60;99.60;;;;;;5093058;28;20403;-60
2021/03/14 13:36:31;;;;;;;21.25;5.97;;;8.80;99.90;;;;;;5092117;28;20392;-60
2021/03/14 13:38:57;;;;;;;25.27;5.65;;;8.70;99.90;;;;;;5092445;28;20871;-59
2021/03/14 13:41:23;;;;;;;24.77;5.47;;;8.70;99.50;;;;;;5092763;28;20768;-61
2021/03/14 13:43:49;;;;;;;17.87;5.70;;;8.70;99.90;;;;;;5092855;28;20391;-61
2021/03/14 13:46:15;;;;;;;15.52;5.25;;;8.50;99.80;;;;;;5092094;28;20425;-61
2021/03/14 13:48:44;;;;;;;21.45;6.07;;;8.20;99.90;;;;;;5091580;28;20419;-61
2021/03/14 13:51:12;;;;;;;26.85;6.10;;;8.10;99.90;;;;;;5090687;28;20388;-61
2021/03/14 13:53:38;;;;;;;21.73;6.20;;;7.90;99.90;;;;;;5068482;28;20382;-61
2021/03/14 13:56:05;;;;;;;24.23;6.43;;;7.70;99.90;;;;;;5091712;28;20418;-61
2021/03/14 13:58:35;;;;;;;25.17;7.50;;;7.50;99.90;;;;;;5092683;28;20396;-61
2021/03/14 14:01:01;;;;;;;27.48;11.05;;;7.20;99.90;;;;;;5086575;28;20404;-61
2021/03/14 14:03:27;;;;;;;29.63;10.27;;;7.20;99.90;;;;;;5092120;28;20377;-61
2021/03/14 14:05:54;;;;;;;31.73;11.85;;;7.20;99.90;;;;;;5091900;28;20395;-61
2021/03/14 14:08:20;;;;;;;26.98;7.78;;;7.30;99.90;;;;;;5092170;28;20396;-61
2021/03/14 14:10:46;;;;;;;32.70;10.27;;;7.30;99.90;;;;;;5092804;28;20732;-61
2021/03/14 14:13:12;;;;;;;27.30;9.38;;;7.30;99.90;;;;;;5092240;28;20377;-60
2021/03/14 14:15:38;;;;;;;24.48;8.82;;;7.30;99.90;;;;;;5092131;28;20925;-61
2021/03/14 14:18:05;;;;;;;27.33;10.43;;;7.30;99.90;;;;;;5071093;28;20385;-60
2021/03/14 14:20:31;;;;;;;33.97;14.13;;;7.10;99.90;;;;;;5089581;28;20408;-60